Montezuma, NM (87731)

9:37 AM MDT on July 30, 2016 (GMT -0600)
UWC-USA Agroecology Research Center | | Change Station

Elev 6706 ft 35.65 °N, 105.28 °W | Updated 6 seconds ago

Clear
Clear
73.4 °F
Feels Like 77 °F
N
0.0
Wind Variable Wind from ESE
Gusts 11.0 mph

Today
High -- | Low -- °F
--% Chance of Precip.
Yesterday
High -- | Low -- °F
Precip. -- in
Pressure 29.97 in
Visibility 10.0 miles
Clouds Clear
Heat Index 77 °F
Dew Point 55 °F
Humidity 52%
Rainfall 0.00 in
Snow Depth Not available.
6:08 AM 8:06 PM
Waning Crescent, 12% visible
METAR KLVS 301453Z AUTO 19014KT 10SM CLR 20/11 A3027 RMK AO2 SLP148 T02000111 58003
Pressure 29.97 in
Visibility 10.0 miles
Clouds Clear
Heat Index 77 °F
Dew Point 55 °F
Humidity 52%
Rainfall 0.00 in
Snow Depth Not available.
6:08 AM 8:06 PM
Waning Crescent, 12% visible
METAR KLVS 301453Z AUTO 19014KT 10SM CLR 20/11 A3027 RMK AO2 SLP148 T02000111 58003

10-Day Weather Forecast

Almanac

Astronomy

Jul. 30, 2016 Rise Set
Actual Time
Civil Twilight
Nautical Twilight
Astronomical Twilight
Moon
Length of Visible Light
Length of Day
Tomorrow will be .
, % of the Moon is Illuminated

Today's Extremes

State Highs State Lows

Community

WunderPhotos

Upload Photos

1,928,587 photos uploaded!

WunderBlog® & News

Nearby

Air Quality

  Air Quality AQ Index Pollutant
Not available.

Snow Depth

Station Depth Elevation

Earthquake Activity

City Distance Mag. Time & Date
Minimum magnitude displayed is 2.5.

Coastal Water Temperatures

Place Temperature

Stations

Nearby Weather Stations

Station Location Temp. Windchill Dew Point Humidity Wind Precip. Elev Updated Type
                   

Watches & Warnings

There are currently no watches in effect.